Terminal Aerodrome Forecast
Issued by NWS Flagstaff, AZ

Home | Current Version | Previous Version | Text Only | Print | Product List | Glossary On
Versions: 1 2 3 4 5 6 7 8 9 10 11 12 13 14 15
000
FTUS45 KFGZ 250500 RRA
TAFFLG
TAF
KFLG 250541Z 2506/2606 VRB06KT P6SM FEW200
     FM251800 23007KT P6SM BKN080
      TEMPO 2519/2523 -TSRA BKN080CB
     FM260200 VRB06KT P6SM FEW100 BKN200=

USA.gov is the U.S. government's official web portal to all federal, state and local government web resources and services.